createdAt,value
2022-07-26T00:01:20.324Z,11.67
2022-07-26T00:03:49.788Z,8.33
2022-07-26T00:06:18.947Z,9.33
2022-07-26T00:08:48.058Z,9.70
2022-07-26T00:11:16.364Z,10.83
2022-07-26T00:13:44.735Z,11.70
2022-07-26T00:16:13.194Z,8.93
2022-07-26T00:18:43.245Z,9.00
2022-07-26T00:21:12.407Z,8.97
2022-07-26T00:23:40.683Z,9.47
2022-07-26T00:26:08.986Z,11.10
2022-07-26T00:28:37.141Z,14.33
2022-07-26T00:31:05.412Z,10.70
2022-07-26T00:33:33.684Z,13.10
2022-07-26T00:36:03.215Z,14.63
2022-07-26T00:38:31.410Z,10.70
2022-07-26T00:40:59.941Z,10.90
2022-07-26T00:43:28.141Z,10.20
2022-07-26T00:45:56.311Z,15.17
2022-07-26T00:48:24.674Z,16.73
2022-07-26T00:50:54.552Z,13.37
2022-07-26T00:53:24.658Z,11.80
2022-07-26T00:55:53.956Z,7.53
2022-07-26T00:58:22.137Z,12.40
2022-07-26T01:00:50.415Z,10.83
2022-07-26T01:03:18.696Z,11.70
2022-07-26T01:05:48.387Z,11.33
2022-07-26T01:08:16.601Z,9.53
2022-07-26T01:10:46.073Z,10.63
2022-07-26T01:13:16.278Z,9.60
2022-07-26T01:15:44.530Z,12.57
2022-07-26T01:18:12.704Z,10.00
2022-07-26T01:20:40.903Z,11.57
2022-07-26T01:23:10.568Z,10.10
2022-07-26T01:25:43.733Z,10.07
2022-07-26T01:28:19.627Z,11.93
2022-07-26T01:30:49.128Z,11.40
2022-07-26T01:33:17.740Z,10.00
2022-07-26T01:35:46.049Z,12.93
2022-07-26T01:38:15.546Z,8.30
2022-07-26T01:40:43.874Z,8.17
2022-07-26T01:43:12.050Z,15.40
2022-07-26T01:45:40.193Z,8.50
2022-07-26T01:48:08.611Z,8.80
2022-07-26T01:50:36.846Z,8.70
2022-07-26T01:53:06.185Z,9.67
2022-07-26T01:55:36.515Z,6.33
2022-07-26T01:58:05.513Z,6.33
2022-07-26T02:00:37.472Z,6.17
2022-07-26T02:03:06.098Z,8.43
2022-07-26T02:05:34.385Z,9.40
2022-07-26T02:08:04.372Z,9.40
2022-07-26T02:10:46.499Z,6.50
2022-07-26T02:13:17.329Z,6.73
2022-07-26T02:15:45.503Z,5.90
2022-07-26T02:18:14.105Z,10.73
2022-07-26T02:20:42.267Z,7.87
2022-07-26T02:23:10.538Z,5.83
2022-07-26T02:25:38.748Z,6.43
2022-07-26T02:28:07.267Z,5.50
2022-07-26T02:30:36.937Z,12.80
2022-07-26T02:33:07.141Z,7.00
2022-07-26T02:35:35.315Z,6.27
2022-07-26T02:38:04.647Z,8.60
2022-07-26T02:40:33.182Z,5.07
2022-07-26T02:43:01.453Z,7.70
2022-07-26T02:45:29.735Z,6.13
2022-07-26T02:47:59.468Z,5.10
2022-07-26T02:50:28.845Z,6.03
2022-07-26T02:52:57.698Z,5.43
2022-07-26T02:55:27.461Z,7.20
2022-07-26T02:57:55.910Z,9.70
2022-07-26T03:00:25.611Z,6.90
2022-07-26T03:02:54.826Z,8.67
2022-07-26T03:05:24.650Z,7.10
2022-07-26T03:07:52.761Z,7.23
2022-07-26T03:10:21.021Z,9.13
2022-07-26T03:12:49.169Z,7.60
2022-07-26T03:15:17.348Z,5.50
2022-07-26T03:17:45.562Z,5.83
2022-07-26T03:20:14.339Z,4.73
2022-07-26T03:22:44.086Z,7.83
2022-07-26T03:25:12.237Z,6.77
2022-07-26T03:27:40.460Z,6.30
2022-07-26T03:30:10.012Z,5.87
2022-07-26T03:32:39.780Z,5.47
2022-07-26T03:35:08.925Z,9.70
2022-07-26T03:37:44.981Z,5.23
2022-07-26T03:40:16.990Z,7.47
2022-07-26T03:42:45.519Z,6.33
2022-07-26T03:45:14.488Z,6.73
2022-07-26T03:47:42.991Z,7.47
2022-07-26T03:50:13.730Z,7.60
2022-07-26T03:52:42.517Z,8.70
2022-07-26T03:55:28.805Z,8.13
2022-07-26T03:57:58.962Z,5.53
2022-07-26T04:00:27.304Z,7.10
2022-07-26T04:02:55.490Z,9.97
2022-07-26T04:05:26.180Z,7.03
2022-07-26T04:07:55.930Z,4.03
2022-07-26T04:10:24.655Z,6.30
2022-07-26T04:12:52.995Z,4.93
2022-07-26T04:15:22.750Z,8.57
2022-07-26T04:17:51.048Z,6.17
2022-07-26T04:20:19.679Z,7.40
2022-07-26T04:22:47.914Z,5.10
2022-07-26T04:25:16.195Z,6.83
2022-07-26T04:27:44.563Z,5.00
2022-07-26T04:30:15.477Z,9.53
2022-07-26T04:32:46.817Z,8.47
2022-07-26T04:35:16.669Z,4.87
2022-07-26T04:37:45.831Z,6.10
2022-07-26T04:40:21.219Z,8.80
2022-07-26T04:42:51.200Z,7.43
2022-07-26T04:45:19.602Z,4.70
2022-07-26T04:47:50.805Z,5.27
2022-07-26T04:50:19.602Z,7.27
2022-07-26T04:52:47.923Z,5.43
2022-07-26T04:55:16.284Z,3.80
2022-07-26T04:57:44.776Z,7.90
2022-07-26T05:00:22.525Z,6.13
2022-07-26T05:02:54.744Z,7.83
2022-07-26T05:05:23.348Z,11.43
2022-07-26T05:07:53.288Z,7.00
2022-07-26T05:10:23.684Z,8.50
2022-07-26T05:12:51.869Z,13.73
2022-07-26T05:15:20.056Z,13.60
2022-07-26T05:17:48.276Z,11.53
2022-07-26T05:20:19.226Z,14.63
2022-07-26T05:22:47.968Z,7.93
2022-07-26T05:25:16.150Z,10.60
2022-07-26T05:27:44.337Z,6.40
2022-07-26T05:30:12.924Z,9.10
2022-07-26T05:32:41.351Z,9.07
2022-07-26T05:35:10.283Z,8.67
2022-07-26T05:37:39.955Z,14.00
2022-07-26T05:40:09.010Z,11.93
2022-07-26T05:42:37.215Z,6.70
2022-07-26T05:45:06.962Z,6.63
2022-07-26T05:47:35.306Z,15.30
2022-07-26T05:50:03.644Z,9.60
2022-07-26T05:52:31.916Z,7.57
2022-07-26T05:55:01.537Z,8.00
2022-07-26T05:57:29.905Z,10.80
2022-07-26T05:59:58.129Z,5.87
2022-07-26T06:02:26.378Z,6.73
2022-07-26T06:04:54.724Z,8.03
2022-07-26T06:07:22.895Z,9.90
2022-07-26T06:09:51.051Z,10.43
2022-07-26T06:12:20.580Z,8.80
2022-07-26T06:14:48.747Z,6.17
2022-07-26T06:17:17.015Z,6.80
2022-07-26T06:19:47.736Z,5.30
2022-07-26T06:22:16.368Z,8.43
2022-07-26T06:24:44.567Z,4.07
2022-07-26T06:27:12.709Z,7.13
2022-07-26T06:29:42.309Z,9.43
2022-07-26T06:32:10.500Z,6.23
2022-07-26T06:34:38.673Z,5.50
2022-07-26T06:37:06.821Z,3.80
2022-07-26T06:39:34.977Z,9.40
2022-07-26T06:42:03.248Z,6.97
2022-07-26T06:44:31.429Z,8.30
2022-07-26T06:47:00.932Z,6.53
2022-07-26T06:49:29.273Z,5.30
2022-07-26T06:51:58.245Z,12.27
2022-07-26T06:54:26.377Z,8.10
2022-07-26T06:56:54.867Z,6.57
2022-07-26T06:59:23.055Z,8.60
2022-07-26T07:01:59.443Z,5.60
2022-07-26T07:04:30.008Z,11.77
2022-07-26T07:07:04.523Z,5.93
2022-07-26T07:09:35.003Z,5.60
2022-07-26T07:12:09.546Z,4.83
2022-07-26T07:14:38.407Z,7.33
2022-07-26T07:17:17.186Z,8.37
2022-07-26T07:19:49.757Z,4.00
2022-07-26T07:22:18.032Z,5.90
2022-07-26T07:24:46.557Z,5.13
2022-07-26T07:27:14.994Z,6.03
2022-07-26T07:29:44.082Z,5.10
2022-07-26T07:32:18.123Z,7.40
2022-07-26T07:34:47.665Z,6.73
2022-07-26T07:37:17.633Z,7.10
2022-07-26T07:39:50.191Z,5.63
2022-07-26T07:42:18.927Z,5.50
2022-07-26T07:44:47.099Z,6.10
2022-07-26T07:47:15.403Z,13.03
2022-07-26T07:49:43.776Z,6.07
2022-07-26T07:52:11.923Z,9.30
2022-07-26T07:54:42.217Z,6.27
2022-07-26T07:57:10.744Z,9.40
2022-07-26T07:59:39.322Z,5.77
2022-07-26T08:02:09.390Z,6.20
2022-07-26T08:04:37.589Z,12.70
2022-07-26T08:07:05.874Z,5.50
2022-07-26T08:09:34.224Z,5.87
2022-07-26T08:12:03.932Z,5.97
2022-07-26T08:14:33.710Z,5.70
2022-07-26T08:17:02.445Z,6.43
2022-07-26T08:19:41.973Z,8.00
2022-07-26T08:22:11.413Z,7.63
2022-07-26T08:24:40.638Z,7.33
2022-07-26T08:27:10.235Z,4.60
2022-07-26T08:29:38.408Z,4.90
2022-07-26T08:32:07.651Z,9.23
2022-07-26T08:34:36.116Z,5.50
2022-07-26T08:37:17.257Z,5.87
2022-07-26T08:39:46.149Z,7.13
2022-07-26T08:42:16.787Z,9.20
2022-07-26T08:44:45.679Z,5.80
2022-07-26T08:47:14.306Z,4.60
2022-07-26T08:49:42.649Z,6.07
2022-07-26T08:52:11.834Z,5.00
2022-07-26T08:54:44.176Z,5.17
2022-07-26T08:57:13.535Z,4.97
2022-07-26T08:59:43.591Z,5.73
2022-07-26T09:02:13.798Z,5.90
2022-07-26T09:04:45.052Z,6.73
2022-07-26T09:07:15.560Z,9.13
2022-07-26T09:09:59.020Z,6.60
2022-07-26T09:12:28.642Z,5.47
2022-07-26T09:14:58.586Z,6.57
2022-07-26T09:17:39.100Z,5.10
2022-07-26T09:20:09.574Z,6.70
2022-07-26T09:22:38.131Z,6.07
2022-07-26T09:25:21.685Z,4.77
2022-07-26T09:27:49.897Z,6.20
2022-07-26T09:30:19.556Z,9.23
2022-07-26T09:32:59.132Z,5.73
2022-07-26T09:38:17.597Z,5.57
2022-07-26T09:40:49.609Z,4.73
2022-07-26T09:43:22.142Z,8.33
2022-07-26T09:46:06.251Z,5.00
2022-07-26T09:49:07.027Z,4.73
2022-07-26T09:51:40.606Z,4.53
2022-07-26T09:54:10.202Z,5.83
2022-07-26T09:56:47.541Z,6.43
2022-07-26T09:59:16.774Z,6.03
2022-07-26T10:01:46.487Z,2.93
2022-07-26T10:04:15.780Z,2.73
2022-07-26T10:06:44.377Z,3.00
2022-07-26T10:09:13.292Z,2.93
2022-07-26T10:11:44.077Z,3.10
2022-07-26T10:14:41.400Z,3.23
2022-07-26T10:17:45.892Z,2.40
2022-07-26T10:20:47.545Z,4.30
2022-07-26T10:23:41.634Z,2.30
2022-07-26T10:26:15.290Z,2.30
2022-07-26T10:28:43.539Z,2.20
2022-07-26T10:31:32.567Z,2.40
2022-07-26T10:34:02.598Z,3.60
2022-07-26T10:36:39.340Z,2.30
2022-07-26T10:39:14.995Z,2.23
2022-07-26T10:41:45.631Z,3.83
2022-07-26T10:44:25.777Z,1.90
2022-07-26T10:47:18.374Z,2.33
2022-07-26T10:49:57.359Z,1.40
2022-07-26T10:52:29.455Z,2.60
2022-07-26T10:55:08.892Z,3.20
2022-07-26T10:57:39.614Z,2.40
2022-07-26T11:00:19.749Z,2.10
2022-07-26T11:02:59.270Z,2.37
2022-07-26T11:05:31.350Z,2.43
2022-07-26T11:08:08.227Z,1.87
2022-07-26T11:10:38.562Z,1.70
2022-07-26T11:13:12.452Z,3.30
2022-07-26T11:15:43.037Z,1.67
2022-07-26T11:18:18.013Z,3.20
2022-07-26T11:20:47.419Z,2.40
2022-07-26T11:23:39.004Z,2.20
2022-07-26T11:26:09.743Z,1.53
2022-07-26T11:28:45.676Z,3.13
2022-07-26T11:31:14.597Z,1.60
2022-07-26T11:33:45.080Z,2.77
2022-07-26T11:36:13.750Z,2.47
2022-07-26T11:38:48.306Z,2.27
2022-07-26T11:41:16.813Z,1.93
2022-07-26T11:43:44.974Z,7.43
2022-07-26T11:46:13.206Z,3.60
2022-07-26T11:48:46.794Z,1.30
2022-07-26T11:51:16.701Z,4.10
2022-07-26T11:53:46.869Z,11.90
2022-07-26T11:56:21.911Z,2.47
2022-07-26T11:58:51.382Z,1.20
2022-07-26T12:01:20.889Z,1.40
2022-07-26T12:03:51.230Z,2.40
2022-07-26T12:06:21.082Z,3.37
2022-07-26T12:08:56.270Z,3.30
2022-07-26T12:11:26.181Z,2.00
2022-07-26T12:13:59.473Z,2.70
2022-07-26T12:16:42.833Z,1.97
2022-07-26T12:19:12.951Z,4.37
2022-07-26T12:21:43.439Z,2.40
2022-07-26T12:24:14.464Z,1.90
2022-07-26T12:26:42.641Z,2.50
2022-07-26T12:29:25.733Z,1.50
2022-07-26T12:32:18.479Z,2.60
2022-07-26T12:34:57.661Z,3.00
2022-07-26T12:37:37.628Z,1.70
2022-07-26T12:40:11.538Z,2.70
2022-07-26T12:42:41.254Z,2.70
2022-07-26T12:45:11.625Z,2.83
2022-07-26T12:47:42.420Z,2.10
2022-07-26T12:50:12.666Z,3.00
2022-07-26T12:52:42.036Z,4.60
2022-07-26T12:55:14.801Z,4.30
2022-07-26T12:57:45.971Z,3.10
2022-07-26T13:00:18.522Z,2.20
2022-07-26T13:02:47.133Z,4.30
2022-07-26T13:05:16.270Z,3.70
2022-07-26T13:07:44.793Z,2.40
2022-07-26T13:10:32.347Z,3.80
2022-07-26T13:13:01.561Z,3.03
2022-07-26T13:15:36.138Z,6.30
2022-07-26T13:18:07.823Z,2.73
2022-07-26T13:20:37.896Z,3.10
2022-07-26T13:23:06.078Z,2.80
2022-07-26T13:25:40.030Z,3.53
2022-07-26T13:28:09.181Z,2.40
2022-07-26T13:30:38.825Z,1.90
2022-07-26T13:33:07.168Z,3.50
2022-07-26T13:35:35.436Z,3.60
2022-07-26T13:38:03.709Z,3.93
2022-07-26T13:40:32.334Z,4.17
2022-07-26T13:43:02.096Z,3.90
2022-07-26T13:45:30.358Z,2.10
2022-07-26T13:47:59.793Z,4.73
2022-07-26T13:50:28.438Z,3.13
2022-07-26T13:52:57.386Z,7.80
2022-07-26T13:55:28.903Z,2.07
2022-07-26T13:57:58.097Z,4.43
2022-07-26T14:00:29.001Z,1.43
2022-07-26T14:02:59.398Z,6.60
2022-07-26T14:05:28.316Z,3.30
2022-07-26T14:07:56.844Z,6.10
2022-07-26T14:10:25.663Z,2.93
2022-07-26T14:12:53.934Z,2.47
2022-07-26T14:15:23.546Z,4.67
2022-07-26T14:17:53.857Z,2.53
2022-07-26T14:20:22.054Z,2.20
2022-07-26T14:22:53.464Z,2.23
2022-07-26T14:25:22.159Z,2.83
2022-07-26T14:27:51.152Z,4.50
2022-07-26T14:30:19.637Z,4.33
2022-07-26T14:32:48.405Z,3.00
2022-07-26T14:35:18.447Z,6.20
2022-07-26T14:37:46.658Z,2.90
2022-07-26T14:40:16.372Z,2.97
2022-07-26T14:42:44.788Z,2.23
2022-07-26T14:45:13.257Z,2.73
2022-07-26T14:47:41.509Z,2.63
2022-07-26T14:50:11.192Z,2.20
2022-07-26T14:52:42.103Z,4.67
2022-07-26T14:55:11.116Z,3.07
2022-07-26T14:57:40.383Z,2.30
2022-07-26T15:00:10.458Z,3.03
2022-07-26T15:02:40.300Z,5.10
2022-07-26T15:05:09.384Z,4.63
2022-07-26T15:07:37.770Z,2.93
2022-07-26T15:10:09.198Z,8.00
2022-07-26T15:12:37.615Z,3.00
2022-07-26T15:15:07.269Z,1.90
2022-07-26T15:17:35.925Z,2.30
2022-07-26T15:20:05.488Z,3.00
2022-07-26T15:22:33.686Z,4.10
2022-07-26T15:25:01.838Z,1.80
2022-07-26T15:27:31.787Z,2.63
2022-07-26T15:30:04.313Z,1.83
2022-07-26T15:32:36.589Z,7.70
2022-07-26T15:35:05.108Z,3.63
2022-07-26T15:37:33.294Z,3.40
2022-07-26T15:40:01.774Z,5.17
2022-07-26T15:42:32.983Z,5.57
2022-07-26T15:45:03.220Z,2.30
2022-07-26T15:47:53.597Z,2.60
2022-07-26T15:50:23.425Z,2.80
2022-07-26T15:52:51.760Z,2.80
2022-07-26T15:55:20.773Z,3.37
2022-07-26T15:57:50.356Z,4.40
2022-07-26T16:00:19.540Z,3.50
2022-07-26T16:02:47.878Z,3.03
2022-07-26T16:05:16.254Z,10.43
2022-07-26T16:07:45.125Z,3.90
2022-07-26T16:10:15.159Z,3.10
2022-07-26T16:12:43.858Z,3.73
2022-07-26T16:15:13.660Z,2.87
2022-07-26T16:17:42.067Z,5.07
2022-07-26T16:20:10.833Z,3.60
2022-07-26T16:22:41.274Z,3.93
2022-07-26T16:25:12.819Z,3.60
2022-07-26T16:27:41.842Z,3.33
2022-07-26T16:30:11.208Z,5.17
2022-07-26T16:32:40.809Z,4.40
2022-07-26T16:35:10.118Z,3.07
2022-07-26T16:37:38.552Z,2.00
2022-07-26T16:40:08.389Z,2.70
2022-07-26T16:42:36.555Z,3.20
2022-07-26T16:45:05.439Z,3.37
2022-07-26T16:47:37.523Z,3.73
2022-07-26T16:50:08.469Z,4.20
2022-07-26T16:52:36.617Z,2.57
2022-07-26T16:55:07.697Z,4.03
2022-07-26T16:57:35.894Z,5.67
2022-07-26T17:00:04.435Z,3.23
2022-07-26T17:02:32.769Z,3.23
2022-07-26T17:05:01.059Z,4.07
2022-07-26T17:07:32.011Z,2.90
2022-07-26T17:10:00.426Z,3.77
2022-07-26T17:12:28.550Z,3.40
2022-07-26T17:14:56.837Z,3.10
2022-07-26T17:17:25.309Z,2.47
2022-07-26T17:19:53.639Z,4.43
2022-07-26T17:22:22.278Z,6.87
2022-07-26T17:24:51.973Z,4.10
2022-07-26T17:27:20.370Z,2.90
2022-07-26T17:29:48.567Z,3.73
2022-07-26T17:32:16.773Z,6.37
2022-07-26T17:34:45.027Z,2.10
2022-07-26T17:37:13.419Z,2.00
2022-07-26T17:39:51.703Z,5.77
2022-07-26T17:42:22.889Z,3.43
2022-07-26T17:44:51.475Z,2.63
2022-07-26T17:47:29.254Z,4.23
2022-07-26T17:52:53.227Z,4.83
2022-07-26T17:55:22.084Z,3.50
2022-07-26T17:57:51.924Z,3.73
2022-07-26T18:00:21.524Z,3.87
2022-07-26T18:02:50.196Z,3.77
2022-07-26T18:05:19.621Z,4.30
2022-07-26T18:07:48.195Z,4.43
2022-07-26T18:10:16.749Z,2.63
2022-07-26T18:12:44.895Z,2.97
2022-07-26T18:15:14.442Z,3.47
2022-07-26T18:17:42.746Z,3.93
2022-07-26T18:20:12.207Z,3.80
2022-07-26T18:22:40.468Z,2.40
2022-07-26T18:25:09.423Z,3.90
2022-07-26T18:27:37.869Z,4.57
2022-07-26T18:30:07.454Z,3.93
2022-07-26T18:32:37.018Z,2.23
2022-07-26T18:35:06.092Z,3.73
2022-07-26T18:37:34.453Z,7.70
2022-07-26T18:40:02.755Z,4.70
2022-07-26T18:42:31.028Z,2.70
2022-07-26T18:44:59.189Z,3.03
2022-07-26T18:47:27.404Z,2.80
2022-07-26T18:49:56.950Z,2.87
2022-07-26T18:52:28.852Z,4.27
2022-07-26T18:55:02.362Z,9.13
2022-07-26T18:57:30.819Z,5.33
2022-07-26T18:59:58.969Z,6.90
2022-07-26T19:02:27.344Z,4.53
2022-07-26T19:04:56.846Z,7.47
2022-07-26T19:07:25.174Z,3.40
2022-07-26T19:09:58.016Z,5.43
2022-07-26T19:12:27.589Z,3.97
2022-07-26T19:14:55.934Z,6.87
2022-07-26T19:17:24.320Z,5.30
2022-07-26T19:19:53.140Z,3.10
2022-07-26T19:22:24.190Z,4.87
2022-07-26T19:24:52.499Z,3.83
2022-07-26T19:27:20.740Z,5.53
2022-07-26T19:29:49.859Z,5.83
2022-07-26T19:32:18.220Z,5.17
2022-07-26T19:34:46.452Z,5.97
2022-07-26T19:37:21.183Z,4.00
2022-07-26T19:39:51.440Z,4.23
2022-07-26T19:42:20.015Z,5.13
2022-07-26T19:44:48.516Z,6.27
2022-07-26T19:47:16.607Z,3.90
2022-07-26T19:49:44.789Z,5.70
2022-07-26T19:52:13.004Z,3.57
2022-07-26T19:54:41.456Z,5.07
2022-07-26T19:57:11.075Z,8.07
2022-07-26T19:59:39.398Z,4.13
2022-07-26T20:02:07.747Z,6.37
2022-07-26T20:04:36.047Z,5.40
2022-07-26T20:07:04.534Z,5.50
2022-07-26T20:09:32.746Z,6.63
2022-07-26T20:12:01.858Z,6.83
2022-07-26T20:14:31.441Z,4.80
2022-07-26T20:17:00.173Z,8.17
2022-07-26T20:19:28.455Z,11.13
2022-07-26T20:21:58.799Z,7.00
2022-07-26T20:24:27.597Z,6.13
2022-07-26T20:26:55.894Z,4.93
2022-07-26T20:29:24.261Z,3.90
2022-07-26T20:31:53.999Z,4.50
2022-07-26T20:34:22.164Z,6.90
2022-07-26T20:36:50.333Z,4.97
2022-07-26T20:39:18.587Z,3.23
2022-07-26T20:41:47.328Z,4.97
2022-07-26T20:44:15.510Z,5.20
2022-07-26T20:46:44.696Z,3.83
2022-07-26T20:49:14.719Z,4.10
2022-07-26T20:51:43.661Z,5.40
2022-07-26T20:54:12.629Z,7.93
2022-07-26T20:56:40.833Z,3.57
2022-07-26T20:59:10.241Z,4.13
2022-07-26T21:01:38.845Z,5.07
2022-07-26T21:04:07.005Z,4.77
2022-07-26T21:06:36.486Z,3.87
2022-07-26T21:09:09.595Z,6.07
2022-07-26T21:11:39.757Z,16.13
2022-07-26T21:14:10.135Z,4.80
2022-07-26T21:16:38.862Z,7.00
2022-07-26T21:19:07.190Z,8.33
2022-07-26T21:21:38.118Z,6.70
2022-07-26T21:24:07.244Z,3.60
2022-07-26T21:26:35.974Z,5.10
2022-07-26T21:29:04.329Z,4.10
2022-07-26T21:31:32.502Z,4.27
2022-07-26T21:34:00.803Z,3.53
2022-07-26T21:36:29.026Z,5.60
2022-07-26T21:38:58.578Z,5.50
2022-07-26T21:41:26.677Z,3.77
2022-07-26T21:43:54.792Z,3.40
2022-07-26T21:46:23.297Z,6.43
2022-07-26T21:48:51.549Z,4.17
2022-07-26T21:51:20.147Z,3.23
2022-07-26T21:53:48.366Z,4.53
2022-07-26T21:56:18.785Z,3.53
2022-07-26T21:58:47.188Z,5.43
2022-07-26T22:01:15.826Z,4.17
2022-07-26T22:03:44.477Z,3.00
2022-07-26T22:06:13.031Z,2.23
2022-07-26T22:08:41.219Z,5.03
2022-07-26T22:11:09.742Z,3.13
2022-07-26T22:13:39.819Z,5.30
2022-07-26T22:16:08.378Z,6.23
2022-07-26T22:18:36.616Z,3.50
2022-07-26T22:21:05.026Z,4.83
2022-07-26T22:23:33.482Z,7.73
2022-07-26T22:26:03.208Z,2.77
2022-07-26T22:28:32.384Z,6.00
2022-07-26T22:31:02.586Z,4.50
2022-07-26T22:33:30.840Z,3.67
2022-07-26T22:35:59.018Z,5.40
2022-07-26T22:38:27.166Z,3.80
2022-07-26T22:40:55.295Z,3.80
2022-07-26T22:43:23.550Z,3.90
2022-07-26T22:45:51.749Z,2.67
2022-07-26T22:48:21.337Z,2.63
2022-07-26T22:50:49.488Z,2.70
2022-07-26T22:53:17.749Z,6.43
2022-07-26T22:55:45.913Z,4.97
2022-07-26T22:58:14.492Z,3.30
2022-07-26T23:00:42.914Z,4.57
2022-07-26T23:03:19.707Z,4.40
2022-07-26T23:05:52.310Z,4.77
2022-07-26T23:11:08.842Z,4.47
2022-07-26T23:13:37.496Z,4.43
2022-07-26T23:16:06.308Z,5.37
2022-07-26T23:18:36.147Z,3.30
2022-07-26T23:21:05.825Z,4.00
2022-07-26T23:23:34.031Z,5.77
2022-07-26T23:26:02.416Z,6.70
2022-07-26T23:28:35.635Z,7.50
2022-07-26T23:31:09.588Z,6.30
2022-07-26T23:33:53.326Z,5.60
2022-07-26T23:36:28.065Z,3.77
2022-07-26T23:38:56.630Z,5.40
2022-07-26T23:41:25.306Z,5.20
2022-07-26T23:43:54.310Z,3.37
2022-07-26T23:46:22.638Z,3.67
2022-07-26T23:48:51.526Z,9.20
2022-07-26T23:51:20.497Z,3.47
2022-07-26T23:53:50.277Z,3.83
2022-07-26T23:56:19.075Z,6.03
2022-07-26T23:58:47.226Z,6.23
